Time;durP1;ratioP1;P1;durP2;ratioP2;P2;SDS_P1;SDS_P2;PMS_P1;PMS_P2;Temp;Humidity;BMP_temperature;BMP_pressure;BME280_temperature;BME280_humidity;BME280_pressure;Samples;Min_cycle;Max_cycle;Signal;HPM_P1;HPM_P2
2020/12/07 00:00:25;;;;;;;11.52;7.47;;;2.60;99.90;;;;;;5013251;28;20229;-88
2020/12/07 00:02:51;;;;;;;8.25;6.95;;;2.70;99.90;;;;;;5013886;28;20239;-90
2020/12/07 00:05:18;;;;;;;8.60;5.65;;;2.70;99.90;;;;;;5014373;28;20239;-89
2020/12/07 00:07:44;;;;;;;8.23;6.10;;;2.70;99.90;;;;;;5015339;28;20211;-89
2020/12/07 00:10:10;;;;;;;12.30;6.93;;;2.80;99.90;;;;;;5015889;28;20289;-91
2020/12/07 00:12:37;;;;;;;7.10;6.40;;;2.80;99.90;;;;;;5016080;28;20636;-90
2020/12/07 00:15:05;;;;;;;9.25;6.18;;;2.80;99.90;;;;;;5014857;28;20754;-89
2020/12/07 00:17:33;;;;;;;7.03;6.10;;;2.80;99.90;;;;;;5011413;28;20290;-91
2020/12/07 00:20:00;;;;;;;7.78;7.05;;;2.90;99.90;;;;;;5015730;28;20239;-90
2020/12/07 00:22:27;;;;;;;7.90;6.20;;;2.80;99.90;;;;;;5015691;28;20733;-89
2020/12/07 00:24:54;;;;;;;6.85;6.03;;;2.90;99.90;;;;;;5015511;28;20226;-90
2020/12/07 00:27:22;;;;;;;8.55;6.10;;;2.80;99.90;;;;;;5015723;28;20286;-89
2020/12/07 00:29:49;;;;;;;7.10;6.15;;;2.80;99.90;;;;;;5019203;28;20238;-90
2020/12/07 00:32:16;;;;;;;6.80;5.55;;;2.90;99.90;;;;;;5019451;28;20298;-89
2020/12/07 00:34:43;;;;;;;8.88;5.75;;;2.90;99.90;;;;;;5018478;28;20298;-91
2020/12/07 00:37:09;;;;;;;7.97;5.82;;;2.90;99.90;;;;;;5019271;28;20313;-89
2020/12/07 00:39:36;;;;;;;6.82;5.80;;;2.90;99.90;;;;;;5019019;28;20203;-90
2020/12/07 00:42:02;;;;;;;7.78;6.30;;;2.90;99.90;;;;;;5019457;28;20203;-90
2020/12/07 00:44:29;;;;;;;6.65;5.93;;;2.80;99.90;;;;;;5018209;28;20674;-89
2020/12/07 00:46:55;;;;;;;11.95;7.32;;;2.80;99.90;;;;;;5016431;28;20294;-90
2020/12/07 00:49:23;;;;;;;6.65;6.07;;;2.80;99.90;;;;;;5018361;28;20266;-90
2020/12/07 00:51:49;;;;;;;10.45;6.97;;;2.80;99.90;;;;;;5017334;28;20635;-90
2020/12/07 00:54:16;;;;;;;6.72;6.00;;;2.80;99.90;;;;;;5014894;28;20232;-92
2020/12/07 00:56:43;;;;;;;6.45;5.72;;;2.90;99.90;;;;;;5015485;28;20630;-91
2020/12/07 00:59:10;;;;;;;6.68;6.03;;;2.90;99.90;;;;;;5017589;28;20263;-89
2020/12/07 01:01:37;;;;;;;9.30;6.57;;;2.90;99.90;;;;;;5012893;28;20211;-91
2020/12/07 01:04:03;;;;;;;7.15;5.55;;;2.90;99.90;;;;;;5012435;28;20239;-89
2020/12/07 01:06:32;;;;;;;8.23;5.57;;;3.00;99.90;;;;;;5016591;28;20286;-89
2020/12/07 01:08:58;;;;;;;6.13;5.05;;;2.90;99.90;;;;;;5017434;28;20239;-90
2020/12/07 01:11:25;;;;;;;8.00;5.70;;;2.90;99.90;;;;;;5017847;28;20258;-89
2020/12/07 01:13:51;;;;;;;8.10;6.75;;;2.90;99.90;;;;;;5017269;28;20363;-91
2020/12/07 01:16:19;;;;;;;9.05;5.95;;;2.90;99.90;;;;;;5016079;28;20319;-91
2020/12/07 01:18:46;;;;;;;6.22;5.30;;;2.90;99.90;;;;;;5016804;28;20233;-91
2020/12/07 01:21:13;;;;;;;5.63;5.15;;;2.90;99.90;;;;;;5016963;28;20254;-92
2020/12/07 01:23:41;;;;;;;7.18;4.32;;;2.90;99.90;;;;;;5016709;28;20642;-90
2020/12/07 01:26:08;;;;;;;6.10;5.50;;;2.90;99.90;;;;;;5016986;28;20239;-90
2020/12/07 01:28:35;;;;;;;7.93;5.07;;;2.90;99.90;;;;;;5017151;28;20231;-90
2020/12/07 01:31:02;;;;;;;8.15;5.85;;;2.90;99.90;;;;;;5015305;28;20246;-91
2020/12/07 01:33:28;;;;;;;6.43;5.15;;;2.90;99.90;;;;;;5016168;28;20627;-90
2020/12/07 01:35:55;;;;;;;7.38;5.68;;;2.90;99.90;;;;;;5015987;28;20275;-91
2020/12/07 01:38:22;;;;;;;6.82;5.40;;;2.90;99.90;;;;;;5016503;28;20290;-90
2020/12/07 01:40:50;;;;;;;9.68;6.75;;;2.90;99.90;;;;;;5016852;28;20246;-91
2020/12/07 01:43:16;;;;;;;8.57;5.00;;;3.00;99.90;;;;;;5016668;28;20290;-90
2020/12/07 01:45:43;;;;;;;6.70;4.47;;;3.00;99.90;;;;;;5016128;28;20305;-90
2020/12/07 01:48:09;;;;;;;7.30;4.82;;;3.00;99.90;;;;;;5020269;28;20243;-90
2020/12/07 01:50:36;;;;;;;6.15;5.32;;;2.90;99.90;;;;;;5034323;28;20203;-90
2020/12/07 01:53:03;;;;;;;5.80;4.97;;;3.00;99.90;;;;;;5036184;28;20206;-88
2020/12/07 01:55:30;;;;;;;5.35;4.80;;;3.00;99.90;;;;;;5040056;28;20207;-91
2020/12/07 01:57:57;;;;;;;7.72;5.00;;;3.00;99.90;;;;;;5040360;28;20239;-90
2020/12/07 02:00:24;;;;;;;5.85;4.20;;;3.00;99.90;;;;;;5038457;28;20560;-91
2020/12/07 02:02:51;;;;;;;7.03;5.80;;;3.00;99.90;;;;;;5024042;28;20380;-90
2020/12/07 02:05:18;;;;;;;5.18;4.68;;;3.00;99.90;;;;;;5019071;28;20286;-90
2020/12/07 02:07:45;;;;;;;6.15;4.68;;;3.00;99.90;;;;;;5017709;28;20192;-89
2020/12/07 02:10:14;;;;;;;4.13;3.78;;;3.00;99.90;;;;;;5013827;28;20279;-90
2020/12/07 02:12:40;;;;;;;5.30;4.80;;;3.00;99.90;;;;;;5016383;28;20215;-90
2020/12/07 02:15:08;;;;;;;7.55;4.82;;;3.00;99.90;;;;;;5011556;28;20246;-88
2020/12/07 02:17:34;;;;;;;6.60;4.88;;;3.00;99.90;;;;;;5014786;28;20211;-88
2020/12/07 02:20:01;;;;;;;4.93;4.20;;;3.00;99.90;;;;;;5015074;28;20222;-89
2020/12/07 02:22:28;;;;;;;4.72;3.97;;;3.00;99.90;;;;;;5015438;28;20234;-89
2020/12/07 02:24:55;;;;;;;5.10;4.10;;;3.10;99.90;;;;;;5015231;28;20286;-90
2020/12/07 02:27:21;;;;;;;6.40;4.05;;;3.00;99.90;;;;;;5015119;28;20647;-89
2020/12/07 02:29:47;;;;;;;6.20;4.22;;;3.10;99.90;;;;;;5014961;28;20290;-89
2020/12/07 02:32:15;;;;;;;5.22;3.30;;;3.10;99.90;;;;;;5013956;28;20231;-89
2020/12/07 02:34:43;;;;;;;6.75;4.88;;;3.10;99.90;;;;;;5014775;28;20634;-90
2020/12/07 02:37:11;;;;;;;3.88;3.53;;;3.10;99.90;;;;;;5015085;28;20624;-91
2020/12/07 02:39:38;;;;;;;5.57;4.97;;;3.10;99.90;;;;;;5015408;28;20223;-91
2020/12/07 02:42:05;;;;;;;6.57;3.78;;;3.10;99.90;;;;;;5015157;28;20203;-91
2020/12/07 02:44:31;;;;;;;5.05;3.47;;;3.10;99.90;;;;;;5015006;28;20261;-90
2020/12/07 02:46:58;;;;;;;4.53;4.13;;;3.10;99.90;;;;;;5013758;28;20290;-90
2020/12/07 02:49:25;;;;;;;4.00;3.60;;;3.00;99.90;;;;;;5014473;28;20204;-91
2020/12/07 02:51:51;;;;;;;4.85;3.35;;;3.00;99.90;;;;;;5014490;28;20727;-90
2020/12/07 02:54:19;;;;;;;5.72;4.15;;;3.00;99.90;;;;;;5010635;28;20640;-91
2020/12/07 02:56:45;;;;;;;5.07;3.50;;;3.00;99.90;;;;;;5014686;28;20600;-90
2020/12/07 02:59:12;;;;;;;3.13;2.85;;;3.00;99.90;;;;;;5015230;28;20580;-90
2020/12/07 03:01:38;;;;;;;3.78;3.00;;;3.00;99.90;;;;;;5014122;28;20262;-91
2020/12/07 03:04:05;;;;;;;3.35;3.05;;;3.00;99.90;;;;;;5014438;28;20207;-90
2020/12/07 03:06:31;;;;;;;4.30;3.90;;;3.10;99.90;;;;;;5010800;28;20211;-89
2020/12/07 03:08:58;;;;;;;3.55;2.92;;;3.00;99.90;;;;;;5014752;28;20234;-90
2020/12/07 03:11:25;;;;;;;4.15;2.75;;;3.00;99.90;;;;;;5014698;28;20311;-90
2020/12/07 03:13:51;;;;;;;3.75;3.00;;;3.00;99.90;;;;;;5014874;28;20298;-90
2020/12/07 03:16:18;;;;;;;3.30;2.42;;;3.10;99.90;;;;;;5013284;28;20731;-91
2020/12/07 03:18:44;;;;;;;4.38;2.53;;;3.00;99.90;;;;;;5010479;28;20631;-91
2020/12/07 03:21:11;;;;;;;4.50;3.28;;;3.10;99.90;;;;;;5009809;28;20722;-90
2020/12/07 03:23:37;;;;;;;3.17;2.60;;;3.10;99.90;;;;;;5013914;28;20290;-90
2020/12/07 03:26:04;;;;;;;3.80;2.42;;;3.10;99.90;;;;;;5009867;28;20282;-90
2020/12/07 03:28:31;;;;;;;2.95;2.40;;;3.10;99.90;;;;;;5013716;28;20267;-91
2020/12/07 03:30:57;;;;;;;5.00;2.83;;;3.10;99.90;;;;;;5012818;28;20231;-91
2020/12/07 03:33:24;;;;;;;3.30;3.00;;;3.00;99.90;;;;;;5013771;28;20289;-89
2020/12/07 03:35:50;;;;;;;4.28;3.13;;;3.10;99.90;;;;;;5013524;28;20318;-90
2020/12/07 03:38:16;;;;;;;3.38;2.55;;;3.10;99.90;;;;;;5013573;28;20238;-91
2020/12/07 03:40:43;;;;;;;4.05;2.80;;;3.10;99.90;;;;;;5013890;28;20207;-90
2020/12/07 03:43:09;;;;;;;2.45;2.25;;;3.10;99.90;;;;;;5013586;28;20295;-90
2020/12/07 03:45:37;;;;;;;3.28;2.97;;;3.10;99.90;;;;;;5009395;28;20212;-91
2020/12/07 03:48:03;;;;;;;3.15;2.80;;;3.10;99.90;;;;;;5013593;28;20580;-89
2020/12/07 03:50:30;;;;;;;2.17;2.00;;;3.20;99.90;;;;;;5013353;28;20204;-92
2020/12/07 03:52:56;;;;;;;2.92;2.40;;;3.10;99.90;;;;;;5013633;28;20282;-90
2020/12/07 03:55:22;;;;;;;3.40;3.15;;;3.10;99.90;;;;;;5013362;28;20282;-90
2020/12/07 03:57:49;;;;;;;3.08;2.40;;;3.20;99.90;;;;;;5009208;28;20242;-91
2020/12/07 04:00:15;;;;;;;3.40;2.55;;;3.20;99.90;;;;;;5013288;28;20702;-90
2020/12/07 04:02:42;;;;;;;2.60;2.40;;;3.20;99.90;;;;;;5011535;28;20227;-90
2020/12/07 04:05:16;;;;;;;3.33;2.38;;;3.20;99.90;;;;;;5013075;28;20277;-91
2020/12/07 04:07:42;;;;;;;3.92;2.55;;;3.20;99.90;;;;;;5013487;28;20234;-90
2020/12/07 04:10:09;;;;;;;2.40;2.17;;;3.20;99.90;;;;;;5013321;28;20230;-90
2020/12/07 04:12:35;;;;;;;6.68;3.10;;;3.20;99.90;;;;;;5013429;28;20683;-90
2020/12/07 04:15:02;;;;;;;3.40;2.85;;;3.30;99.90;;;;;;5013374;28;20258;-91
2020/12/07 04:17:28;;;;;;;3.25;2.92;;;3.20;99.90;;;;;;5011788;28;20644;-89
2020/12/07 04:19:55;;;;;;;3.08;2.45;;;3.30;99.90;;;;;;5012882;28;20552;-90
2020/12/07 04:22:22;;;;;;;7.60;2.40;;;3.30;99.90;;;;;;5012987;28;20293;-90
2020/12/07 04:24:48;;;;;;;2.97;2.67;;;3.30;99.90;;;;;;5013031;28;20207;-89
2020/12/07 04:27:15;;;;;;;5.03;2.40;;;3.30;99.90;;;;;;5012867;28;20302;-89
2020/12/07 04:29:41;;;;;;;3.05;2.00;;;3.30;99.90;;;;;;5009028;28;20655;-90
2020/12/07 04:32:07;;;;;;;1.60;1.50;;;3.30;99.90;;;;;;5011602;28;20283;-87
2020/12/07 04:34:34;;;;;;;2.60;2.40;;;3.30;99.90;;;;;;5012702;28;20302;-91
2020/12/07 04:37:01;;;;;;;2.33;1.80;;;3.30;99.90;;;;;;5012672;28;20235;-89
2020/12/07 04:39:28;;;;;;;2.28;2.08;;;3.30;99.90;;;;;;5012974;28;20641;-92
2020/12/07 04:41:55;;;;;;;2.97;2.25;;;3.30;99.90;;;;;;5010016;28;20263;-91
2020/12/07 04:44:21;;;;;;;3.05;2.85;;;3.30;99.90;;;;;;5009950;28;20228;-89
2020/12/07 04:46:49;;;;;;;2.65;2.45;;;3.30;99.90;;;;;;5011754;28;20622;-89
2020/12/07 04:49:16;;;;;;;2.40;2.20;;;3.30;99.90;;;;;;5012635;28;20290;-90
2020/12/07 04:51:43;;;;;;;2.72;2.53;;;3.30;99.90;;;;;;5012784;28;20208;-89
2020/12/07 04:54:15;;;;;;;4.05;2.45;;;3.40;99.90;;;;;;5012688;28;20726;-89
2020/12/07 04:56:42;;;;;;;2.47;1.73;;;3.30;99.90;;;;;;5012601;28;20321;-90
2020/12/07 04:59:09;;;;;;;5.22;1.90;;;3.40;99.90;;;;;;5012633;28;20319;-91
2020/12/07 05:01:36;;;;;;;2.40;2.20;;;3.40;99.90;;;;;;5011407;28;20200;-89
2020/12/07 05:04:02;;;;;;;2.28;2.08;;;3.40;99.90;;;;;;5012614;28;20298;-88
2020/12/07 05:06:31;;;;;;;4.78;2.60;;;3.40;99.90;;;;;;5012140;28;20295;-89
2020/12/07 05:08:57;;;;;;;2.58;2.25;;;3.40;99.90;;;;;;5011654;28;20214;-89
2020/12/07 05:11:26;;;;;;;4.15;2.80;;;3.40;99.90;;;;;;5012750;28;20239;-90
2020/12/07 05:13:58;;;;;;;3.33;2.40;;;3.40;99.90;;;;;;5014240;28;20685;-91
2020/12/07 05:16:25;;;;;;;2.47;2.25;;;3.40;99.90;;;;;;5015035;28;20239;-90
2020/12/07 05:18:51;;;;;;;2.58;2.35;;;3.40;99.90;;;;;;5013168;28;20203;-91
2020/12/07 05:21:19;;;;;;;3.55;3.03;;;3.40;99.90;;;;;;5016105;28;20257;-90
2020/12/07 05:23:51;;;;;;;4.03;2.55;;;3.40;99.90;;;;;;5015969;28;20729;-89
2020/12/07 05:26:18;;;;;;;3.45;2.47;;;3.40;99.90;;;;;;5016178;28;20235;-91
2020/12/07 05:28:49;;;;;;;4.68;2.72;;;3.40;99.90;;;;;;5016006;28;20204;-91
2020/12/07 05:31:16;;;;;;;2.42;2.10;;;3.40;99.90;;;;;;5014905;28;20295;-90
2020/12/07 05:33:43;;;;;;;2.55;2.35;;;3.40;99.90;;;;;;5016064;28;20624;-89
2020/12/07 05:36:11;;;;;;;3.33;2.80;;;3.40;99.90;;;;;;5015584;28;20779;-90
2020/12/07 05:38:37;;;;;;;4.88;3.78;;;3.30;99.90;;;;;;5016143;28;20664;-91
2020/12/07 05:41:05;;;;;;;4.25;2.70;;;3.40;99.90;;;;;;5012994;28;20258;-90
2020/12/07 05:43:32;;;;;;;4.65;3.20;;;3.30;99.90;;;;;;5015992;28;20220;-89
2020/12/07 05:46:00;;;;;;;3.35;3.05;;;3.30;99.90;;;;;;5014803;28;20294;-90
2020/12/07 05:48:30;;;;;;;2.67;2.42;;;3.30;99.90;;;;;;5015710;28;20731;-92
2020/12/07 05:51:01;;;;;;;2.40;2.13;;;3.20;99.90;;;;;;5015633;28;20211;-90
2020/12/07 05:53:27;;;;;;;4.07;3.30;;;3.20;99.90;;;;;;5015620;28;20199;-89
2020/12/07 05:55:55;;;;;;;4.47;3.30;;;3.20;99.90;;;;;;5015743;28;20658;-91
2020/12/07 05:58:22;;;;;;;4.35;3.70;;;3.20;99.90;;;;;;5015321;28;20259;-90
2020/12/07 06:00:54;;;;;;;3.97;3.33;;;3.10;99.90;;;;;;5014337;28;20261;-91
2020/12/07 06:03:22;;;;;;;4.78;4.30;;;3.20;99.90;;;;;;5015372;28;20234;-90
2020/12/07 06:05:48;;;;;;;5.70;3.63;;;3.20;99.90;;;;;;5015943;28;20306;-90
2020/12/07 06:08:34;;;;;;;5.10;3.65;;;3.20;99.90;;;;;;5015575;28;20246;-91
2020/12/07 06:11:04;;;;;;;3.85;3.53;;;3.20;99.90;;;;;;4998600;28;20212;-91
2020/12/07 06:13:32;;;;;;;4.25;3.55;;;3.20;99.90;;;;;;4996144;28;20291;-91
2020/12/07 06:16:03;;;;;;;6.88;3.92;;;3.20;99.90;;;;;;4994882;28;20236;-90
2020/12/07 06:18:32;;;;;;;8.18;4.25;;;3.20;99.90;;;;;;4996349;28;20243;-90
2020/12/07 06:21:04;;;;;;;5.05;3.42;;;3.10;99.90;;;;;;4995643;28;20283;-91
2020/12/07 06:23:32;;;;;;;6.70;4.30;;;3.10;99.90;;;;;;4995543;28;20204;-91
2020/12/07 06:26:00;;;;;;;4.13;3.67;;;3.10;99.90;;;;;;4995075;28;20197;-90
2020/12/07 06:28:31;;;;;;;3.25;2.95;;;3.00;99.90;;;;;;4995685;28;20208;-89
2020/12/07 06:31:03;;;;;;;4.07;3.67;;;3.00;99.90;;;;;;4997732;28;20215;-91
2020/12/07 06:33:37;;;;;;;4.20;2.90;;;3.00;99.90;;;;;;4996096;28;20282;-90
2020/12/07 06:36:03;;;;;;;3.72;3.33;;;2.90;99.90;;;;;;4995051;28;20228;-90
2020/12/07 06:38:40;;;;;;;4.80;3.60;;;2.90;99.90;;;;;;4995576;28;20240;-90
2020/12/07 06:41:07;;;;;;;4.00;3.60;;;3.00;99.90;;;;;;5013243;28;20249;-90
2020/12/07 06:43:33;;;;;;;4.57;3.92;;;3.00;99.90;;;;;;5015105;28;20296;-90
2020/12/07 06:46:00;;;;;;;4.93;4.18;;;3.00;99.90;;;;;;5014454;28;20307;-90
2020/12/07 06:48:27;;;;;;;6.40;4.55;;;3.10;99.90;;;;;;5029685;28;20621;-90
2020/12/07 06:50:57;;;;;;;5.65;4.40;;;3.10;99.90;;;;;;5038984;28;20188;-91
2020/12/07 06:53:39;;;;;;;4.25;3.85;;;3.20;99.90;;;;;;5038048;28;20216;-90
2020/12/07 06:56:05;;;;;;;5.95;4.05;;;3.20;99.90;;;;;;5022009;28;20223;-89
2020/12/07 06:58:34;;;;;;;4.47;3.72;;;3.20;99.90;;;;;;5014634;28;20236;-90
2020/12/07 07:01:11;;;;;;;8.05;4.53;;;3.20;99.90;;;;;;5014605;28;20274;-90
2020/12/07 07:03:50;;;;;;;4.97;3.92;;;3.20;99.90;;;;;;5014848;28;20257;-91
2020/12/07 07:06:20;;;;;;;6.07;5.57;;;3.30;99.90;;;;;;5013602;28;20221;-89
2020/12/07 07:08:48;;;;;;;5.18;4.43;;;3.30;99.90;;;;;;5014383;28;20210;-88
2020/12/07 07:11:15;;;;;;;5.80;4.90;;;3.40;99.90;;;;;;5014465;28;20214;-89
2020/12/07 07:13:49;;;;;;;7.72;4.65;;;3.40;99.90;;;;;;5014076;28;20281;-90
2020/12/07 07:16:17;;;;;;;7.00;5.28;;;3.40;99.90;;;;;;5013429;28;20269;-90
2020/12/07 07:18:44;;;;;;;5.88;3.83;;;3.40;99.90;;;;;;5014446;28;20217;-89
2020/12/07 07:21:10;;;;;;;4.25;3.83;;;3.50;99.90;;;;;;5014126;28;20301;-89
2020/12/07 07:23:39;;;;;;;7.55;4.10;;;3.50;99.90;;;;;;5013766;28;20286;-90
2020/12/07 07:26:17;;;;;;;5.25;4.20;;;3.60;99.90;;;;;;5014181;28;20219;-89
2020/12/07 07:28:45;;;;;;;5.43;4.93;;;3.60;99.90;;;;;;5013877;28;20211;-89
2020/12/07 07:31:14;;;;;;;6.35;5.57;;;3.70;99.90;;;;;;5012641;28;20243;-89
2020/12/07 07:33:42;;;;;;;6.05;5.35;;;3.70;99.90;;;;;;5011314;28;20294;-90
2020/12/07 07:36:19;;;;;;;4.60;4.18;;;3.80;99.90;;;;;;5013769;28;20338;-90
2020/12/07 07:38:46;;;;;;;6.05;4.38;;;3.90;99.90;;;;;;5013798;28;20230;-89
2020/12/07 07:41:22;;;;;;;5.72;4.30;;;3.90;99.90;;;;;;5012601;28;20262;-90
2020/12/07 07:43:48;;;;;;;6.93;4.57;;;3.90;99.90;;;;;;5014203;28;20289;-89
2020/12/07 07:46:15;;;;;;;4.43;3.92;;;3.90;99.90;;;;;;5012870;28;20204;-90
2020/12/07 07:48:50;;;;;;;5.35;4.30;;;3.90;99.90;;;;;;5013779;28;20223;-89
2020/12/07 07:51:56;;;;;;;4.75;4.18;;;3.90;99.90;;;;;;5017002;28;20725;-89
2020/12/07 08:16:28;;;;;;;4.88;4.00;;;4.50;99.90;;;;;;5012382;28;20373;-85
2020/12/07 08:18:57;;;;;;;5.20;3.63;;;4.40;99.90;;;;;;5014043;28;20296;-83
2020/12/07 08:21:31;;;;;;;4.32;3.15;;;4.40;99.90;;;;;;5013900;28;20201;-84
2020/12/07 08:24:05;;;;;;;3.92;3.50;;;4.40;99.90;;;;;;5018143;28;20579;-83
2020/12/07 08:26:40;;;;;;;5.00;4.07;;;4.40;99.90;;;;;;5010984;28;20211;-83
2020/12/07 08:29:06;;;;;;;9.32;4.60;;;4.40;99.90;;;;;;5013171;28;20210;-85
2020/12/07 08:31:35;;;;;;;6.32;5.60;;;4.50;99.90;;;;;;5012068;28;20207;-85
2020/12/07 08:34:06;;;;;;;6.70;4.70;;;4.40;99.90;;;;;;5008997;28;20239;-85
2020/12/07 08:36:33;;;;;;;4.78;4.25;;;4.40;99.90;;;;;;5013109;28;20705;-85
2020/12/07 08:39:00;;;;;;;4.45;3.65;;;4.50;99.90;;;;;;5012933;28;20264;-85
2020/12/07 08:41:28;;;;;;;3.67;3.00;;;4.50;99.90;;;;;;5011751;28;20290;-86
2020/12/07 08:43:56;;;;;;;4.45;3.88;;;4.60;99.90;;;;;;5012867;28;20210;-85
2020/12/07 08:46:25;;;;;;;4.53;3.10;;;4.70;99.90;;;;;;5011955;28;20298;-85
2020/12/07 08:48:51;;;;;;;4.20;3.83;;;4.80;99.90;;;;;;5014741;28;20204;-85
2020/12/07 08:51:20;;;;;;;4.03;3.63;;;4.90;99.90;;;;;;5017220;28;20621;-84
2020/12/07 08:53:47;;;;;;;3.88;3.50;;;4.80;99.90;;;;;;5016517;28;20206;-85
2020/12/07 08:56:13;;;;;;;4.20;3.45;;;5.00;99.90;;;;;;5016761;28;20233;-85
2020/12/07 08:58:40;;;;;;;5.10;3.90;;;5.10;99.90;;;;;;5016541;28;20596;-85
2020/12/07 09:01:09;;;;;;;6.95;4.88;;;5.00;99.90;;;;;;5015329;28;20203;-85
2020/12/07 09:03:36;;;;;;;6.38;4.50;;;4.90;99.90;;;;;;5016612;28;20205;-85
2020/12/07 09:06:03;;;;;;;3.88;3.55;;;4.90;99.90;;;;;;5016483;28;20204;-84
2020/12/07 09:08:30;;;;;;;4.82;4.35;;;4.90;99.90;;;;;;5020525;28;20310;-85
2020/12/07 09:10:56;;;;;;;7.18;4.35;;;5.10;99.90;;;;;;5019825;28;20338;-84
2020/12/07 09:13:23;;;;;;;4.63;3.47;;;5.10;99.90;;;;;;5020906;28;20267;-85
2020/12/07 09:15:50;;;;;;;3.78;3.33;;;5.10;99.90;;;;;;5018605;28;20686;-84
2020/12/07 09:18:17;;;;;;;3.58;3.15;;;5.10;99.90;;;;;;5017050;28;20275;-84
2020/12/07 09:20:43;;;;;;;3.33;2.50;;;5.10;99.90;;;;;;5016542;28;20214;-84
2020/12/07 09:23:10;;;;;;;3.22;2.80;;;5.20;99.90;;;;;;5016619;28;20211;-85
2020/12/07 09:25:36;;;;;;;4.00;2.50;;;5.30;99.90;;;;;;5016533;28;20299;-85
2020/12/07 09:28:03;;;;;;;3.38;2.92;;;5.30;99.90;;;;;;5016219;28;20298;-86
2020/12/07 09:30:30;;;;;;;2.78;2.20;;;5.30;99.90;;;;;;5015617;28;20203;-85
2020/12/07 09:32:56;;;;;;;2.15;1.95;;;5.30;99.90;;;;;;5016475;28;20314;-85
2020/12/07 09:35:23;;;;;;;2.42;2.22;;;5.30;99.90;;;;;;5015204;28;20223;-87
2020/12/07 09:37:50;;;;;;;3.40;1.90;;;5.40;99.90;;;;;;5016195;28;20401;-85
2020/12/07 09:40:16;;;;;;;3.00;2.40;;;5.50;99.90;;;;;;5016621;28;20242;-83
2020/12/07 09:42:43;;;;;;;2.30;1.58;;;5.50;99.90;;;;;;5018901;28;20239;-88
2020/12/07 09:45:10;;;;;;;2.90;2.30;;;5.60;99.90;;;;;;5020420;28;20215;-87
2020/12/07 09:47:36;;;;;;;3.78;2.13;;;5.80;99.90;;;;;;5015210;28;20239;-83
2020/12/07 09:50:04;;;;;;;4.10;2.25;;;6.20;99.90;;;;;;5016018;28;20636;-83
2020/12/07 09:52:31;;;;;;;2.15;1.95;;;6.20;99.90;;;;;;5015925;28;20247;-83
2020/12/07 09:54:57;;;;;;;2.25;2.00;;;6.40;99.90;;;;;;5016274;28;20276;-82
2020/12/07 09:57:24;;;;;;;2.20;1.50;;;6.70;99.90;;;;;;5016355;28;20665;-83
2020/12/07 09:59:50;;;;;;;2.05;1.55;;;6.80;99.90;;;;;;5014379;28;20537;-82
2020/12/07 10:02:18;;;;;;;2.28;2.10;;;7.10;99.90;;;;;;5014692;28;20210;-82
2020/12/07 10:04:45;;;;;;;2.10;1.70;;;7.00;99.90;;;;;;5016923;28;20291;-83
2020/12/07 10:07:12;;;;;;;2.03;1.67;;;7.00;99.90;;;;;;5015746;28;20546;-83
2020/12/07 10:09:39;;;;;;;1.90;1.80;;;7.00;99.90;;;;;;5016113;28;20287;-83
2020/12/07 10:12:06;;;;;;;3.17;2.60;;;7.00;99.90;;;;;;5015951;28;20295;-81
2020/12/07 10:14:33;;;;;;;2.22;1.85;;;7.10;99.90;;;;;;5015702;28;20553;-83
2020/12/07 10:16:59;;;;;;;2.53;2.33;;;7.00;99.90;;;;;;5014459;28;20372;-82
2020/12/07 10:19:26;;;;;;;3.67;2.43;;;7.20;99.90;;;;;;5017120;28;20498;-81
2020/12/07 10:21:52;;;;;;;2.33;2.13;;;7.30;99.90;;;;;;5016826;28;20529;-80
2020/12/07 10:24:19;;;;;;;2.63;2.30;;;7.40;99.90;;;;;;5019263;28;20482;-81
2020/12/07 10:26:46;;;;;;;2.47;2.27;;;7.40;99.90;;;;;;5035175;28;20450;-82
2020/12/07 10:29:12;;;;;;;3.30;2.27;;;7.40;99.90;;;;;;5033568;28;20446;-81
2020/12/07 10:31:39;;;;;;;2.83;2.53;;;7.20;99.90;;;;;;5034830;28;20484;-80
2020/12/07 10:34:05;;;;;;;2.70;2.43;;;7.10;99.90;;;;;;5018586;28;20239;-80
2020/12/07 10:36:31;;;;;;;4.30;2.33;;;7.00;99.90;;;;;;5015100;28;20601;-80
2020/12/07 10:38:58;;;;;;;3.30;2.50;;;6.90;99.90;;;;;;5015079;28;20533;-82
2020/12/07 10:41:28;;;;;;;2.63;2.40;;;7.00;99.90;;;;;;5010991;28;20261;-81
2020/12/07 10:43:57;;;;;;;2.83;2.10;;;7.00;99.90;;;;;;5016375;28;20718;-83
2020/12/07 10:46:23;;;;;;;2.97;2.50;;;7.00;99.90;;;;;;5014180;28;20285;-82
2020/12/07 10:48:50;;;;;;;4.07;2.50;;;7.00;99.90;;;;;;5014587;28;20628;-83
2020/12/07 10:51:18;;;;;;;2.67;2.47;;;6.90;99.90;;;;;;5014829;28;21014;-81
2020/12/07 10:53:44;;;;;;;3.10;2.65;;;6.70;99.90;;;;;;5014565;28;20450;-83
2020/12/07 10:56:13;;;;;;;3.03;2.67;;;6.70;99.90;;;;;;5011867;28;20243;-83
2020/12/07 10:58:40;;;;;;;2.53;2.33;;;6.60;99.90;;;;;;5014504;28;20242;-87
2020/12/07 11:01:36;;;;;;;2.50;2.30;;;6.40;99.90;;;;;;5013633;28;20227;-82
2020/12/07 11:04:03;;;;;;;3.25;2.85;;;6.50;99.90;;;;;;5014226;28;20239;-84
2020/12/07 11:06:31;;;;;;;2.50;2.30;;;6.60;99.90;;;;;;5014419;28;20301;-83
2020/12/07 11:08:59;;;;;;;2.67;2.47;;;6.50;99.90;;;;;;5014368;28;20204;-82
2020/12/07 11:11:25;;;;;;;4.00;2.60;;;6.60;99.90;;;;;;5013960;28;20203;-82
2020/12/07 11:13:52;;;;;;;3.22;2.60;;;6.50;99.90;;;;;;5014271;28;20239;-83
2020/12/07 11:16:23;;;;;;;3.78;2.30;;;6.30;99.90;;;;;;5012983;28;20299;-83
2020/12/07 11:18:51;;;;;;;2.78;2.42;;;6.40;99.90;;;;;;5013559;28;20486;-84
2020/12/07 11:21:17;;;;;;;3.90;3.13;;;6.40;99.90;;;;;;5013247;28;20522;-83
2020/12/07 11:23:46;;;;;;;3.28;2.97;;;6.30;99.90;;;;;;5014009;28;20239;-84
2020/12/07 11:26:14;;;;;;;3.10;2.75;;;6.40;99.90;;;;;;5014525;28;20266;-85
2020/12/07 11:28:40;;;;;;;2.80;2.50;;;6.40;99.90;;;;;;5019042;28;20261;-83
2020/12/07 11:31:09;;;;;;;3.92;3.38;;;6.50;99.90;;;;;;5021011;28;20226;-84
2020/12/07 11:33:35;;;;;;;4.07;2.72;;;6.70;99.90;;;;;;5021015;28;20234;-82
2020/12/07 11:36:03;;;;;;;3.15;2.60;;;6.90;99.90;;;;;;5028110;28;20207;-84
2020/12/07 11:38:33;;;;;;;2.63;2.42;;;6.90;99.90;;;;;;4980881;28;20272;-83
2020/12/07 11:41:26;;;;;;;3.72;2.83;;;6.90;99.90;;;;;;4975040;28;20220;-83
2020/12/07 11:44:05;;;;;;;3.55;2.83;;;6.90;99.90;;;;;;4974960;28;20213;-85
2020/12/07 11:46:35;;;;;;;3.47;3.17;;;7.10;99.90;;;;;;4973919;28;20205;-84
2020/12/07 11:49:02;;;;;;;5.00;2.97;;;7.10;99.90;;;;;;4974482;28;20470;-85
2020/12/07 11:51:29;;;;;;;3.00;2.70;;;7.20;99.90;;;;;;4976182;28;20255;-85
2020/12/07 11:53:56;;;;;;;3.10;2.73;;;7.20;99.90;;;;;;4975088;28;20539;-84
2020/12/07 11:56:31;;;;;;;3.30;2.83;;;7.30;99.90;;;;;;4975115;28;20449;-85
2020/12/07 11:58:58;;;;;;;2.57;2.30;;;7.20;99.90;;;;;;4974821;28;20511;-84
2020/12/07 12:01:25;;;;;;;3.70;2.72;;;7.00;99.90;;;;;;4974183;28;20539;-83
2020/12/07 12:03:53;;;;;;;3.80;3.13;;;6.80;99.90;;;;;;4977105;28;20209;-87
2020/12/07 12:06:23;;;;;;;4.18;2.88;;;7.10;99.90;;;;;;5014590;28;20481;-87
2020/12/07 12:08:51;;;;;;;3.73;2.97;;;6.90;99.90;;;;;;5014799;28;20627;-84
2020/12/07 12:11:17;;;;;;;4.03;2.80;;;6.70;99.90;;;;;;5014205;28;20537;-85
2020/12/07 12:13:44;;;;;;;3.08;2.80;;;6.50;99.90;;;;;;5014083;28;20902;-84
2020/12/07 12:16:12;;;;;;;3.93;2.93;;;6.50;99.90;;;;;;5012171;28;20255;-84
2020/12/07 12:18:39;;;;;;;2.78;2.50;;;6.50;99.90;;;;;;5013522;28;20498;-85
2020/12/07 12:21:05;;;;;;;3.67;3.20;;;6.60;99.90;;;;;;5013031;28;20298;-84
2020/12/07 12:23:32;;;;;;;2.72;2.22;;;6.70;99.90;;;;;;5012731;28;20238;-85
2020/12/07 12:25:59;;;;;;;32.60;3.13;;;6.70;99.90;;;;;;5013355;28;20238;-85
2020/12/07 12:28:25;;;;;;;4.60;4.20;;;6.60;99.90;;;;;;5013356;28;20821;-85
2020/12/07 12:30:52;;;;;;;2.97;2.17;;;6.70;99.90;;;;;;5011924;28;20315;-83
2020/12/07 12:33:19;;;;;;;5.00;3.03;;;6.70;99.90;;;;;;5013985;28;20328;-85
2020/12/07 12:35:45;;;;;;;3.17;2.33;;;6.70;99.90;;;;;;5012838;28;20888;-84
2020/12/07 12:38:11;;;;;;;3.95;2.58;;;6.60;99.90;;;;;;5013143;28;20322;-82
2020/12/07 12:40:38;;;;;;;4.07;3.05;;;6.60;99.90;;;;;;5013223;28;20307;-84
2020/12/07 12:43:05;;;;;;;4.53;3.50;;;6.50;99.90;;;;;;5012287;28;20322;-84
2020/12/07 12:45:31;;;;;;;5.63;3.45;;;6.40;99.90;;;;;;5012501;28;20675;-85
2020/12/07 12:47:58;;;;;;;2.73;2.53;;;6.40;99.90;;;;;;5014521;28;20265;-82
2020/12/07 12:50:24;;;;;;;3.15;2.40;;;6.30;99.90;;;;;;5015004;28;20485;-82
2020/12/07 12:52:52;;;;;;;3.80;2.20;;;6.40;99.90;;;;;;5015324;28;20299;-83
2020/12/07 12:55:18;;;;;;;3.20;2.80;;;6.50;99.90;;;;;;5028540;28;20198;-83
2020/12/07 12:57:45;;;;;;;3.17;2.85;;;6.50;99.90;;;;;;5036060;28;20234;-83
2020/12/07 13:00:12;;;;;;;3.22;2.47;;;6.40;99.90;;;;;;5037359;28;20220;-84
2020/12/07 13:02:38;;;;;;;4.43;2.85;;;6.40;99.90;;;;;;5027132;28;20270;-82
2020/12/07 13:05:05;;;;;;;2.27;2.07;;;6.50;99.90;;;;;;5013775;28;20299;-83
2020/12/07 13:07:31;;;;;;;4.70;2.60;;;6.50;99.90;;;;;;5013238;28;20574;-83
2020/12/07 13:09:57;;;;;;;2.85;2.03;;;6.60;99.90;;;;;;5012748;28;20298;-82
2020/12/07 13:12:24;;;;;;;2.95;2.00;;;6.80;99.90;;;;;;5009078;28;20292;-82
2020/12/07 13:14:50;;;;;;;2.65;2.22;;;7.00;99.90;;;;;;4993247;28;20236;-82
2020/12/07 13:17:19;;;;;;;3.05;2.17;;;7.20;99.90;;;;;;4992167;28;20318;-83
2020/12/07 13:19:46;;;;;;;4.70;1.90;;;7.30;99.90;;;;;;4992936;28;20208;-82
2020/12/07 13:22:18;;;;;;;2.27;1.80;;;7.40;99.90;;;;;;4992877;28;20455;-81